createdAt,value
2022-12-05T00:00:00.275Z,14.75
2022-12-05T00:02:29.704Z,14.80
2022-12-05T00:04:59.193Z,14.73
2022-12-05T00:07:28.019Z,14.71
2022-12-05T00:09:57.546Z,14.70
2022-12-05T00:12:26.725Z,14.67
2022-12-05T00:14:55.670Z,14.71
2022-12-05T00:17:24.928Z,14.69
2022-12-05T00:19:56.869Z,14.67
2022-12-05T00:22:26.370Z,14.55
2022-12-05T00:24:55.639Z,14.61
2022-12-05T00:27:24.608Z,14.58
2022-12-05T00:29:53.894Z,14.48
2022-12-05T00:32:22.977Z,14.45
2022-12-05T00:34:52.581Z,14.40
2022-12-05T00:37:21.698Z,14.46
2022-12-05T00:39:50.661Z,14.44
2022-12-05T00:42:19.811Z,14.38
2022-12-05T00:44:51.500Z,14.41
2022-12-05T00:47:21.047Z,14.07
2022-12-05T00:49:49.936Z,14.01
2022-12-05T00:52:19.330Z,14.16
2022-12-05T00:54:48.345Z,14.18
2022-12-05T00:57:17.256Z,14.11
2022-12-05T00:59:46.571Z,14.11
2022-12-05T01:02:19.707Z,14.19
2022-12-05T01:04:53.341Z,14.17
2022-12-05T01:07:23.251Z,14.04
2022-12-05T01:09:54.116Z,14.07
2022-12-05T01:12:23.770Z,13.92
2022-12-05T01:14:54.848Z,13.92
2022-12-05T01:17:25.260Z,13.93
2022-12-05T01:19:54.957Z,13.90
2022-12-05T01:22:24.592Z,13.76
2022-12-05T01:24:54.953Z,13.66
2022-12-05T01:27:24.683Z,13.83
2022-12-05T01:29:54.230Z,13.89
2022-12-05T01:32:24.901Z,13.90
2022-12-05T01:34:54.525Z,13.92
2022-12-05T01:37:23.933Z,13.96
2022-12-05T01:39:53.812Z,14.03
2022-12-05T01:42:26.292Z,13.81
2022-12-05T01:44:56.053Z,14.13
2022-12-05T01:47:27.669Z,13.93
2022-12-05T01:49:59.555Z,13.76
2022-12-05T01:52:31.827Z,13.88
2022-12-05T01:55:07.987Z,13.95
2022-12-05T01:57:38.838Z,13.96
2022-12-05T02:00:16.241Z,14.12
2022-12-05T02:02:54.256Z,14.10
2022-12-05T02:05:28.435Z,13.88
2022-12-05T02:08:01.215Z,13.80
2022-12-05T02:10:32.931Z,14.05
2022-12-05T02:13:26.945Z,13.92
2022-12-05T02:16:20.852Z,14.00
2022-12-05T02:18:59.391Z,14.03
2022-12-05T02:21:41.061Z,14.03
2022-12-05T02:24:47.806Z,14.25
2022-12-05T02:27:32.293Z,14.26
2022-12-05T02:30:21.165Z,14.35
2022-12-05T02:33:25.675Z,14.34
2022-12-05T02:36:34.127Z,14.39
2022-12-05T02:39:15.931Z,14.42
2022-12-05T02:42:00.192Z,14.51
2022-12-05T02:44:43.371Z,14.57
2022-12-05T02:47:18.701Z,14.54
2022-12-05T02:49:51.964Z,14.67
2022-12-05T02:52:24.175Z,14.66
2022-12-05T02:54:57.356Z,14.71
2022-12-05T02:57:27.228Z,14.60
2022-12-05T02:59:57.283Z,14.57
2022-12-05T03:02:34.095Z,14.82
2022-12-05T03:05:21.469Z,14.94
2022-12-05T03:07:55.394Z,14.97
2022-12-05T03:10:29.454Z,15.11
2022-12-05T03:13:06.889Z,15.21
2022-12-05T03:15:43.518Z,15.31
2022-12-05T03:18:18.280Z,15.43
2022-12-05T03:21:14.724Z,15.56
2022-12-05T03:23:52.171Z,15.52
2022-12-05T03:26:32.069Z,15.57
2022-12-05T03:29:13.346Z,15.84
2022-12-05T03:32:03.251Z,15.97
2022-12-05T03:34:51.888Z,16.10
2022-12-05T03:37:41.812Z,16.26
2022-12-05T03:40:41.081Z,16.38
2022-12-05T03:43:31.255Z,16.41
2022-12-05T03:46:05.781Z,16.55
2022-12-05T03:48:44.268Z,16.62
2022-12-05T03:51:18.087Z,16.64
2022-12-05T03:54:04.012Z,16.77
2022-12-05T03:56:50.826Z,16.89
2022-12-05T03:59:34.021Z,16.94
2022-12-05T04:02:12.480Z,17.04
2022-12-05T04:05:03.487Z,17.17
2022-12-05T04:07:37.630Z,17.19
2022-12-05T04:10:17.305Z,17.30
2022-12-05T04:12:48.867Z,17.31
2022-12-05T04:15:29.694Z,17.51
2022-12-05T04:18:03.127Z,17.53
2022-12-05T04:21:01.551Z,17.68
2022-12-05T04:23:31.695Z,17.56
2022-12-05T04:26:23.134Z,17.84
2022-12-05T04:29:09.181Z,17.79
2022-12-05T04:31:49.159Z,17.98
2022-12-05T04:34:22.951Z,17.95
2022-12-05T04:36:59.834Z,18.10
2022-12-05T04:39:39.284Z,18.24
2022-12-05T04:42:20.145Z,18.28
2022-12-05T04:44:55.983Z,18.41
2022-12-05T04:47:31.801Z,18.48
2022-12-05T04:50:03.201Z,18.46
2022-12-05T04:52:34.743Z,18.47
2022-12-05T04:55:27.406Z,18.66
2022-12-05T04:58:00.734Z,18.80
2022-12-05T05:00:32.981Z,18.90
2022-12-05T05:03:25.149Z,19.09
2022-12-05T05:05:58.186Z,18.92
2022-12-05T05:08:31.219Z,18.93
2022-12-05T05:11:36.202Z,19.21
2022-12-05T05:14:06.973Z,19.26
2022-12-05T05:16:42.479Z,19.23
2022-12-05T05:19:13.726Z,19.38
2022-12-05T05:21:44.898Z,19.51
2022-12-05T05:24:15.277Z,19.47
2022-12-05T05:26:51.199Z,19.58
2022-12-05T05:29:23.625Z,19.63
2022-12-05T05:31:53.358Z,19.69
2022-12-05T05:34:22.893Z,19.66
2022-12-05T05:36:55.836Z,19.92
2022-12-05T05:39:25.720Z,19.88
2022-12-05T05:41:55.477Z,20.02
2022-12-05T05:44:25.364Z,20.16
2022-12-05T05:46:56.084Z,20.12
2022-12-05T05:49:25.816Z,20.20
2022-12-05T05:51:55.108Z,20.27
2022-12-05T05:54:25.021Z,20.34
2022-12-05T05:56:54.418Z,20.42
2022-12-05T05:59:24.479Z,20.44
2022-12-05T06:01:54.188Z,20.53
2022-12-05T06:04:24.094Z,20.69
2022-12-05T06:06:54.397Z,20.60
2022-12-05T06:09:24.180Z,20.74
2022-12-05T06:11:54.529Z,20.80
2022-12-05T06:14:24.290Z,20.84
2022-12-05T06:16:54.123Z,20.96
2022-12-05T06:19:24.222Z,21.04
2022-12-05T06:21:53.669Z,20.96
2022-12-05T06:24:23.895Z,21.07
2022-12-05T06:26:53.985Z,21.08
2022-12-05T06:29:27.466Z,21.25
2022-12-05T06:31:58.978Z,21.38
2022-12-05T06:34:28.918Z,21.39
2022-12-05T06:36:58.716Z,21.37
2022-12-05T06:39:29.705Z,21.36
2022-12-05T06:41:59.568Z,21.39
2022-12-05T06:44:30.445Z,21.60
2022-12-05T06:47:00.330Z,21.73
2022-12-05T06:49:37.611Z,21.78
2022-12-05T06:52:07.874Z,21.77
2022-12-05T06:54:38.131Z,21.86
2022-12-05T06:57:07.567Z,21.88
2022-12-05T06:59:36.809Z,21.93
2022-12-05T07:02:09.394Z,21.95
2022-12-05T07:04:38.492Z,21.94
2022-12-05T07:07:07.578Z,21.90
2022-12-05T07:10:09.006Z,21.96
2022-12-05T07:12:38.144Z,22.10
2022-12-05T07:15:08.056Z,22.13
2022-12-05T07:17:40.390Z,22.18
2022-12-05T07:20:11.418Z,22.19
2022-12-05T07:22:40.627Z,22.05
2022-12-05T07:25:10.091Z,22.11
2022-12-05T07:27:39.165Z,22.21
2022-12-05T07:30:09.071Z,22.35
2022-12-05T07:32:39.099Z,22.45
2022-12-05T07:35:09.510Z,22.43
2022-12-05T07:37:38.667Z,22.50
2022-12-05T07:40:08.221Z,22.52
2022-12-05T07:42:37.516Z,22.58
2022-12-05T07:45:07.299Z,22.60
2022-12-05T07:47:36.740Z,22.67
2022-12-05T07:50:06.238Z,22.65
2022-12-05T07:52:35.733Z,22.68
2022-12-05T07:55:05.341Z,22.67
2022-12-05T07:57:34.212Z,22.65
2022-12-05T08:00:03.896Z,22.68
2022-12-05T08:02:41.251Z,22.77
2022-12-05T08:05:10.808Z,22.85
2022-12-05T08:07:39.844Z,22.84
2022-12-05T08:10:09.994Z,22.98
2022-12-05T08:12:39.499Z,22.99
2022-12-05T08:15:09.385Z,23.00
2022-12-05T08:17:38.952Z,22.89
2022-12-05T08:20:08.681Z,22.93
2022-12-05T08:22:41.021Z,22.98
2022-12-05T08:25:10.851Z,22.98
2022-12-05T08:27:40.005Z,23.01
2022-12-05T08:30:10.146Z,23.10
2022-12-05T08:32:39.314Z,23.12
2022-12-05T08:35:09.971Z,23.07
2022-12-05T08:37:40.106Z,23.12
2022-12-05T08:40:11.364Z,23.16
2022-12-05T08:42:40.801Z,23.14
2022-12-05T08:45:10.203Z,23.12
2022-12-05T08:47:40.827Z,23.27
2022-12-05T08:50:11.132Z,23.25
2022-12-05T08:52:40.368Z,23.17
2022-12-05T08:55:10.161Z,23.22
2022-12-05T08:57:39.659Z,23.23
2022-12-05T09:00:09.801Z,23.27
2022-12-05T09:02:39.593Z,23.19
2022-12-05T09:05:27.028Z,23.22
2022-12-05T09:08:00.590Z,23.26
2022-12-05T09:10:30.163Z,23.28
2022-12-05T09:12:59.606Z,23.30
2022-12-05T09:15:29.803Z,23.32
2022-12-05T09:17:59.284Z,23.27
2022-12-05T09:20:29.206Z,23.26
2022-12-05T09:22:58.813Z,23.28
2022-12-05T09:25:28.180Z,23.26
2022-12-05T09:27:57.645Z,23.29
2022-12-05T09:30:27.673Z,23.29
2022-12-05T09:32:56.977Z,23.29
2022-12-05T09:35:27.007Z,23.29
2022-12-05T09:38:00.226Z,23.35
2022-12-05T09:40:31.637Z,23.38
2022-12-05T09:43:08.346Z,23.49
2022-12-05T09:45:43.150Z,23.43
2022-12-05T09:48:22.949Z,23.41
2022-12-05T09:51:00.708Z,23.45
2022-12-05T09:53:33.894Z,23.37
2022-12-05T09:56:07.061Z,23.34
2022-12-05T09:58:43.818Z,23.32
2022-12-05T10:01:45.252Z,23.36
2022-12-05T10:04:57.029Z,23.41
2022-12-05T10:07:42.975Z,23.40
2022-12-05T10:10:36.622Z,23.36
2022-12-05T10:13:20.948Z,23.25
2022-12-05T10:15:57.465Z,23.22
2022-12-05T10:18:31.750Z,23.30
2022-12-05T10:21:12.472Z,23.29
2022-12-05T10:23:58.957Z,23.24
2022-12-05T10:26:34.041Z,23.07
2022-12-05T10:29:09.643Z,23.12
2022-12-05T10:31:41.150Z,23.06
2022-12-05T10:34:32.443Z,23.08
2022-12-05T10:37:15.151Z,23.16
2022-12-05T10:39:45.354Z,22.99
2022-12-05T10:42:22.986Z,23.06
2022-12-05T10:44:59.323Z,23.01
2022-12-05T10:47:28.869Z,22.85
2022-12-05T10:50:09.274Z,22.97
2022-12-05T10:52:38.374Z,22.80
2022-12-05T10:55:09.839Z,22.84
2022-12-05T10:57:39.428Z,22.75
2022-12-05T11:00:16.751Z,22.87
2022-12-05T11:02:49.917Z,22.71
2022-12-05T11:05:28.749Z,22.91
2022-12-05T11:07:59.719Z,22.61
2022-12-05T11:10:37.252Z,22.62
2022-12-05T11:13:17.515Z,22.62
2022-12-05T11:15:55.166Z,22.45
2022-12-05T11:18:31.400Z,22.39
2022-12-05T11:21:16.091Z,22.36
2022-12-05T11:23:45.335Z,22.11
2022-12-05T11:26:40.213Z,22.24
2022-12-05T11:29:33.364Z,22.22
2022-12-05T11:32:04.242Z,22.04
2022-12-05T11:35:06.407Z,22.09
2022-12-05T11:38:06.029Z,22.01
2022-12-05T11:40:53.341Z,21.96
2022-12-05T11:43:48.492Z,21.98
2022-12-05T11:46:27.283Z,21.89
2022-12-05T11:49:35.667Z,21.84
2022-12-05T11:52:29.852Z,21.74
2022-12-05T11:55:16.469Z,21.70
2022-12-05T11:57:52.224Z,21.54
2022-12-05T12:00:37.003Z,21.57
2022-12-05T12:03:27.238Z,21.61
2022-12-05T12:06:04.719Z,21.68
2022-12-05T12:08:45.629Z,21.52
2022-12-05T12:11:20.328Z,21.40
2022-12-05T12:14:01.226Z,21.35
2022-12-05T12:16:42.320Z,21.15
2022-12-05T12:19:52.244Z,21.08
2022-12-05T12:22:30.243Z,20.83
2022-12-05T12:25:02.311Z,20.75
2022-12-05T12:27:57.632Z,20.65
2022-12-05T12:31:07.645Z,20.66
2022-12-05T12:34:01.315Z,20.44
2022-12-05T12:36:43.932Z,20.35
2022-12-05T12:39:19.471Z,20.32
2022-12-05T12:42:03.839Z,20.29
2022-12-05T12:44:47.057Z,20.16
2022-12-05T12:47:53.304Z,20.24
2022-12-05T12:50:43.218Z,20.15
2022-12-05T12:53:12.735Z,19.95
2022-12-05T12:55:50.723Z,20.02
2022-12-05T12:58:51.607Z,20.04
2022-12-05T13:01:33.623Z,20.09
2022-12-05T13:04:35.538Z,20.13
2022-12-05T13:07:17.067Z,20.12
2022-12-05T13:09:55.255Z,19.99
2022-12-05T13:12:32.921Z,19.89
2022-12-05T13:15:28.563Z,19.83
2022-12-05T13:17:58.451Z,19.60
2022-12-05T13:20:31.788Z,19.63
2022-12-05T13:23:07.648Z,19.48
2022-12-05T13:25:40.590Z,19.48
2022-12-05T13:28:22.808Z,19.56
2022-12-05T13:31:06.788Z,19.33
2022-12-05T13:33:45.419Z,19.34
2022-12-05T13:36:40.354Z,19.30
2022-12-05T13:39:39.017Z,19.11
2022-12-05T13:42:22.241Z,19.12
2022-12-05T13:44:59.062Z,19.15
2022-12-05T13:47:28.242Z,18.96
2022-12-05T13:50:08.462Z,19.07
2022-12-05T13:52:50.562Z,19.05
2022-12-05T13:55:36.768Z,19.04
2022-12-05T13:58:25.972Z,18.96
2022-12-05T14:01:29.288Z,18.91
2022-12-05T14:04:00.870Z,18.78
2022-12-05T14:06:41.365Z,18.82
2022-12-05T14:09:19.490Z,18.76
2022-12-05T14:12:18.007Z,18.77
2022-12-05T14:14:59.154Z,18.72
2022-12-05T14:17:32.015Z,18.62
2022-12-05T14:20:26.994Z,18.67
2022-12-05T14:23:03.921Z,18.47
2022-12-05T14:25:58.982Z,18.55
2022-12-05T14:28:50.723Z,18.53
2022-12-05T14:31:37.687Z,18.47
2022-12-05T14:34:23.460Z,18.43
2022-12-05T14:37:00.840Z,18.39
2022-12-05T14:39:39.424Z,18.26
2022-12-05T14:42:40.950Z,18.37
2022-12-05T14:45:30.129Z,18.33
2022-12-05T14:48:02.276Z,18.18
2022-12-05T14:50:49.242Z,18.25
2022-12-05T14:53:27.816Z,18.06
2022-12-05T14:56:07.518Z,18.05
2022-12-05T14:58:59.554Z,18.20
2022-12-05T15:01:41.193Z,18.17
2022-12-05T15:04:35.439Z,18.11
2022-12-05T15:07:11.563Z,18.05
2022-12-05T15:09:59.306Z,18.09
2022-12-05T15:12:45.363Z,17.98
2022-12-05T15:15:33.248Z,17.98
2022-12-05T15:18:23.873Z,17.93
2022-12-05T15:21:17.786Z,17.97
2022-12-05T15:23:51.002Z,17.90
2022-12-05T15:29:24.883Z,17.91
2022-12-05T15:32:17.759Z,17.90
2022-12-05T15:35:06.155Z,17.86
2022-12-05T15:37:53.692Z,17.84
2022-12-05T15:40:24.814Z,17.65
2022-12-05T15:42:56.878Z,17.63
2022-12-05T15:45:29.276Z,17.63
2022-12-05T15:48:21.222Z,17.67
2022-12-05T15:50:55.202Z,17.55
2022-12-05T15:53:52.487Z,17.59
2022-12-05T15:56:45.638Z,17.61
2022-12-05T15:59:16.763Z,17.48
2022-12-05T16:01:53.805Z,17.44
2022-12-05T16:04:30.933Z,17.31
2022-12-05T16:07:05.551Z,17.39
2022-12-05T16:09:42.654Z,17.33
2022-12-05T16:12:25.505Z,17.41
2022-12-05T16:15:00.411Z,17.35
2022-12-05T16:17:39.675Z,17.32
2022-12-05T16:20:33.614Z,17.42
2022-12-05T16:23:06.030Z,17.31
2022-12-05T16:25:38.220Z,17.25
2022-12-05T16:28:10.025Z,17.27
2022-12-05T16:30:40.772Z,17.15
2022-12-05T16:33:17.404Z,17.29
2022-12-05T16:35:50.032Z,17.24
2022-12-05T16:38:21.564Z,17.20
2022-12-05T16:40:50.981Z,17.19
2022-12-05T16:43:28.819Z,17.25
2022-12-05T16:46:00.868Z,17.22
2022-12-05T16:48:32.419Z,17.17
2022-12-05T16:51:20.692Z,17.23
2022-12-05T16:53:55.293Z,17.13
2022-12-05T16:56:32.138Z,17.09
2022-12-05T16:59:06.041Z,17.08
2022-12-05T17:01:39.181Z,16.97
2022-12-05T17:04:12.671Z,17.03
2022-12-05T17:06:42.231Z,16.96
2022-12-05T17:09:11.841Z,16.98
2022-12-05T17:11:44.589Z,17.05
2022-12-05T17:14:18.924Z,17.07
2022-12-05T17:16:48.304Z,17.01
2022-12-05T17:19:17.568Z,17.01
2022-12-05T17:21:46.889Z,17.01
2022-12-05T17:24:20.352Z,17.08
2022-12-05T17:26:49.681Z,16.95
2022-12-05T17:29:18.710Z,16.95
2022-12-05T17:31:47.988Z,16.97
2022-12-05T17:34:18.870Z,17.04
2022-12-05T17:36:48.517Z,16.99
2022-12-05T17:39:17.606Z,17.00
2022-12-05T17:41:46.517Z,16.95
2022-12-05T17:44:16.864Z,16.84
2022-12-05T17:46:45.733Z,16.84
2022-12-05T17:49:17.984Z,16.89
2022-12-05T17:52:20.187Z,16.86
2022-12-05T17:54:36.825Z,16.82
2022-12-05T17:57:05.623Z,16.84
2022-12-05T17:59:34.697Z,16.83
2022-12-05T18:02:04.040Z,16.81
2022-12-05T18:04:32.838Z,16.75
2022-12-05T18:07:02.050Z,16.72
2022-12-05T18:09:32.226Z,16.71
2022-12-05T18:12:01.617Z,16.72
2022-12-05T18:14:30.860Z,16.72
2022-12-05T18:17:00.167Z,16.73
2022-12-05T18:19:29.652Z,16.71
2022-12-05T18:21:58.644Z,16.71
2022-12-05T18:24:27.553Z,16.67
2022-12-05T18:26:59.958Z,16.68
2022-12-05T18:29:29.020Z,16.71
2022-12-05T18:31:58.105Z,16.69
2022-12-05T18:34:27.488Z,16.68
2022-12-05T18:36:57.101Z,16.67
2022-12-05T18:39:26.253Z,16.64
2022-12-05T18:41:55.490Z,16.63
2022-12-05T18:44:24.747Z,16.60
2022-12-05T18:46:53.693Z,16.45
2022-12-05T18:49:22.977Z,16.38
2022-12-05T18:51:52.365Z,16.38
2022-12-05T18:54:22.035Z,16.38
2022-12-05T18:56:53.688Z,16.41
2022-12-05T18:59:24.061Z,16.45
2022-12-05T19:01:53.364Z,16.44
2022-12-05T19:04:23.452Z,16.45
2022-12-05T19:06:56.150Z,16.48
2022-12-05T19:09:28.506Z,16.49
2022-12-05T19:12:00.150Z,16.50
2022-12-05T19:14:33.891Z,16.50
2022-12-05T19:17:04.141Z,16.44
2022-12-05T19:19:33.632Z,16.42
2022-12-05T19:22:03.393Z,16.44
2022-12-05T19:24:32.618Z,16.42
2022-12-05T19:27:01.585Z,16.41
2022-12-05T19:29:30.814Z,16.41
2022-12-05T19:31:59.807Z,16.39
2022-12-05T19:34:29.171Z,16.40
2022-12-05T19:36:58.304Z,16.41
2022-12-05T19:39:27.699Z,16.39
2022-12-05T19:42:00.703Z,16.44
2022-12-05T19:44:30.059Z,16.39
2022-12-05T19:46:59.826Z,16.38
2022-12-05T19:49:29.124Z,16.40
2022-12-05T19:51:58.363Z,16.38
2022-12-05T19:54:27.668Z,16.40
2022-12-05T19:56:59.379Z,16.36
2022-12-05T19:59:28.780Z,16.23
2022-12-05T20:01:57.863Z,16.28
2022-12-05T20:04:27.004Z,16.26
2022-12-05T20:06:56.032Z,16.30
2022-12-05T20:09:25.249Z,16.30
2022-12-05T20:11:56.016Z,16.31
2022-12-05T20:14:26.993Z,16.34
2022-12-05T20:16:56.712Z,16.26
2022-12-05T20:19:25.791Z,16.28
2022-12-05T20:21:56.277Z,16.26
2022-12-05T20:24:25.501Z,16.22
2022-12-05T20:26:54.509Z,16.22
2022-12-05T20:29:24.159Z,16.23
2022-12-05T20:31:57.468Z,16.23
2022-12-05T20:34:26.833Z,16.23
2022-12-05T20:36:55.863Z,16.21
2022-12-05T20:39:25.761Z,16.24
2022-12-05T20:41:54.947Z,16.23
2022-12-05T20:44:24.173Z,16.21
2022-12-05T20:46:53.440Z,16.25
2022-12-05T20:49:22.663Z,16.24
2022-12-05T20:51:51.806Z,16.27
2022-12-05T20:54:20.653Z,16.32
2022-12-05T20:56:50.374Z,16.33
2022-12-05T20:59:19.722Z,16.27
2022-12-05T21:01:48.706Z,16.27
2022-12-05T21:04:18.464Z,16.24
2022-12-05T21:06:48.061Z,16.23
2022-12-05T21:09:27.223Z,16.21
2022-12-05T21:11:57.117Z,16.22
2022-12-05T21:14:26.480Z,16.24
2022-12-05T21:16:56.709Z,16.23
2022-12-05T21:19:25.644Z,16.24
2022-12-05T21:21:55.740Z,16.20
2022-12-05T21:24:24.839Z,16.16
2022-12-05T21:26:53.913Z,16.19
2022-12-05T21:29:22.897Z,16.19
2022-12-05T21:31:52.976Z,16.21
2022-12-05T21:34:22.881Z,16.19
2022-12-05T21:36:53.926Z,16.15
2022-12-05T21:39:23.258Z,16.18
2022-12-05T21:41:52.184Z,16.14
2022-12-05T21:44:21.634Z,16.11
2022-12-05T21:46:50.563Z,16.10
2022-12-05T21:49:19.542Z,16.10
2022-12-05T21:51:48.876Z,16.10
2022-12-05T21:54:18.276Z,16.11
2022-12-05T21:56:47.706Z,16.12
2022-12-05T21:59:19.542Z,16.07
2022-12-05T22:01:48.912Z,16.07
2022-12-05T22:04:18.843Z,16.02
2022-12-05T22:06:47.836Z,16.01
2022-12-05T22:09:17.271Z,15.94
2022-12-05T22:11:46.212Z,15.97
2022-12-05T22:14:15.204Z,16.03
2022-12-05T22:16:44.383Z,16.06
2022-12-05T22:19:13.710Z,16.14
2022-12-05T22:21:44.652Z,16.08
2022-12-05T22:24:13.559Z,16.20
2022-12-05T22:26:42.870Z,16.20
2022-12-05T22:29:11.836Z,16.32
2022-12-05T22:31:41.237Z,16.38
2022-12-05T22:34:10.064Z,16.43
2022-12-05T22:36:39.148Z,16.46
2022-12-05T22:39:08.557Z,16.48
2022-12-05T22:41:37.764Z,16.53
2022-12-05T22:44:07.111Z,16.55
2022-12-05T22:46:36.657Z,16.57
2022-12-05T22:49:06.240Z,16.57
2022-12-05T22:51:35.535Z,16.55
2022-12-05T22:54:05.380Z,16.51
2022-12-05T22:56:34.601Z,16.55
2022-12-05T22:59:03.501Z,16.52
2022-12-05T23:01:35.046Z,16.59
2022-12-05T23:04:07.230Z,16.55
2022-12-05T23:06:37.564Z,16.49
2022-12-05T23:09:09.293Z,16.50
2022-12-05T23:11:39.714Z,16.40
2022-12-05T23:14:09.326Z,16.39
2022-12-05T23:16:38.503Z,16.35
2022-12-05T23:19:09.535Z,16.34
2022-12-05T23:21:41.204Z,16.39
2022-12-05T23:24:13.650Z,16.36
2022-12-05T23:26:46.945Z,16.38
2022-12-05T23:29:16.964Z,16.22
2022-12-05T23:31:46.308Z,16.24
2022-12-05T23:34:15.210Z,16.10
2022-12-05T23:36:44.337Z,16.10
2022-12-05T23:39:13.301Z,16.13
2022-12-05T23:41:45.413Z,16.08
2022-12-05T23:44:14.711Z,16.06
2022-12-05T23:46:43.811Z,16.02
2022-12-05T23:49:13.101Z,15.97
2022-12-05T23:51:41.913Z,15.97
2022-12-05T23:54:12.998Z,16.01
2022-12-05T23:56:42.527Z,15.95
2022-12-05T23:59:11.794Z,15.88
